Time;durP1;ratioP1;P1;durP2;ratioP2;P2;SDS_P1;SDS_P2;PMS_P1;PMS_P2;Temp;Humidity;BMP_temperature;BMP_pressure;BME280_temperature;BME280_humidity;BME280_pressure;Samples;Min_cycle;Max_cycle;Signal;HPM_P1;HPM_P2
2022/01/02 00:00:13;;;;;;;1.80;1.70;;;9.80;99.90;9.60;101156.00;;;;5013164;27;105220;-69
2022/01/02 00:02:41;;;;;;;1.53;1.43;;;9.70;99.90;9.60;101144.00;;;;5016274;27;87764;-68
2022/01/02 00:05:12;;;;;;;2.70;2.00;;;9.70;99.90;9.60;101146.00;;;;5016619;27;87225;-69
2022/01/02 00:07:55;;;;;;;4.87;2.57;;;9.60;99.90;9.60;101133.00;;;;5016109;27;88257;-68
2022/01/02 00:10:21;;;;;;;2.10;1.70;;;9.70;99.90;9.60;101119.00;;;;4997476;27;89379;-69
2022/01/02 00:12:57;;;;;;;3.40;2.00;;;9.70;99.90;9.60;101118.00;;;;5013953;27;105254;-68
2022/01/02 00:15:24;;;;;;;3.30;1.70;;;9.70;99.90;9.60;101117.00;;;;5031868;27;87552;-70
2022/01/02 00:17:52;;;;;;;3.13;1.97;;;9.60;99.90;9.50;101107.00;;;;5032010;27;89617;-72
2022/01/02 00:20:35;;;;;;;2.27;1.73;;;9.60;99.90;9.50;101104.00;;;;5035033;27;104818;-72
2022/01/02 00:23:06;;;;;;;2.30;1.67;;;9.60;99.90;9.50;101092.00;;;;5016947;27;87995;-70
2022/01/02 00:25:37;;;;;;;2.60;1.83;;;9.60;99.90;9.40;101082.00;;;;5026186;27;87697;-69
2022/01/02 00:28:06;;;;;;;3.73;2.00;;;9.50;99.90;9.40;101076.00;;;;5012334;27;88230;-72
2022/01/02 00:30:33;;;;;;;5.03;2.27;;;9.50;99.90;9.40;101066.00;;;;5036709;27;87806;-72
2022/01/02 00:33:03;;;;;;;2.20;2.00;;;9.40;99.90;9.30;101067.00;;;;5035790;27;90702;-69
2022/01/02 00:35:29;;;;;;;2.53;1.90;;;9.40;99.90;9.30;101077.00;;;;5031161;27;96708;-70
2022/01/02 00:37:55;;;;;;;2.60;1.73;;;9.80;99.90;9.30;101071.00;;;;5031122;27;104344;-71
2022/01/02 00:40:21;;;;;;;2.07;1.80;;;9.30;99.90;9.20;101077.00;;;;5035184;27;104884;-70
2022/01/02 00:42:55;;;;;;;3.87;2.33;;;9.80;99.90;9.20;101088.00;;;;5036432;27;93429;-69
2022/01/02 00:45:28;;;;;;;3.40;1.63;;;9.30;99.90;9.20;101086.00;;;;5028553;27;93032;-68
2022/01/02 00:48:20;;;;;;;3.67;2.10;;;9.30;99.90;9.10;101081.00;;;;5009842;27;102672;-69
2022/01/02 00:50:52;;;;;;;1.87;1.53;;;9.20;99.90;9.10;101080.00;;;;5012543;27;104959;-68
2022/01/02 00:53:20;;;;;;;2.77;1.50;;;9.10;99.90;9.00;101071.00;;;;5035539;27;88035;-68
2022/01/02 00:55:58;;;;;;;2.27;1.40;;;9.10;99.90;9.00;101068.00;;;;5007508;27;87008;-69
2022/01/02 00:58:35;;;;;;;7.50;2.07;;;9.10;99.90;9.00;101064.00;;;;5004702;27;115824;-71
2022/01/02 01:01:06;;;;;;;2.20;1.73;;;9.10;99.90;8.90;101049.00;;;;5032691;27;87879;-69
2022/01/02 01:03:33;;;;;;;1.90;1.47;;;9.00;99.90;8.90;101045.00;;;;5020951;27;89876;-69
2022/01/02 01:06:04;;;;;;;4.83;2.37;;;9.00;99.90;8.80;101044.00;;;;5005916;27;87999;-69
2022/01/02 01:08:31;;;;;;;1.87;1.33;;;9.50;99.90;8.80;101044.00;;;;5035561;27;87964;-69
2022/01/02 01:10:59;;;;;;;2.70;1.83;;;8.90;99.90;8.80;101049.00;;;;5035414;27;87816;-70
2022/01/02 01:13:25;;;;;;;3.03;1.80;;;8.90;99.90;8.70;101043.00;;;;5035457;27;87876;-71
2022/01/02 01:15:50;;;;;;;1.60;1.50;;;8.90;99.90;8.70;101039.00;;;;5020782;27;89139;-70
2022/01/02 01:18:16;;;;;;;2.47;2.27;;;8.80;99.90;8.70;101036.00;;;;5033399;27;104782;-71
2022/01/02 01:20:43;;;;;;;3.23;1.93;;;8.80;99.90;8.70;101023.00;;;;5035854;27;117649;-70
2022/01/02 01:23:15;;;;;;;2.30;2.13;;;8.80;99.90;8.70;101030.00;;;;5035189;27;87795;-71
2022/01/02 01:25:45;;;;;;;2.07;1.60;;;8.80;99.90;8.70;101019.00;;;;5029226;27;87743;-71
2022/01/02 01:28:13;;;;;;;2.20;1.57;;;8.80;99.90;8.60;101021.00;;;;5016016;27;89062;-71
2022/01/02 01:30:39;;;;;;;2.53;2.00;;;8.70;99.90;8.60;101015.00;;;;5038955;27;88722;-71
2022/01/02 01:33:04;;;;;;;6.37;2.23;;;9.90;99.90;8.60;101007.00;;;;5038484;27;91073;-71
2022/01/02 01:35:30;;;;;;;4.50;2.27;;;8.70;99.90;8.60;101008.00;;;;5033436;27;95930;-71
2022/01/02 01:37:57;;;;;;;2.23;1.90;;;8.70;99.90;8.60;100997.00;;;;5034857;27;88379;-72
2022/01/02 01:40:23;;;;;;;4.53;2.33;;;8.70;99.90;8.60;100994.00;;;;5018848;27;115956;-71
2022/01/02 01:42:58;;;;;;;1.70;1.57;;;8.70;99.90;8.50;100984.00;;;;5039239;27;88146;-71
2022/01/02 01:45:29;;;;;;;3.20;1.70;;;8.60;99.90;8.50;100979.00;;;;5034370;27;87162;-71
2022/01/02 01:48:05;;;;;;;3.63;1.37;;;8.60;99.90;8.40;100976.00;;;;5034940;27;88463;-71
2022/01/02 01:50:38;;;;;;;3.03;2.33;;;8.60;99.90;8.40;100982.00;;;;5038091;27;88790;-71
2022/01/02 01:53:05;;;;;;;3.83;2.57;;;8.60;99.90;8.40;100978.00;;;;5001979;27;88574;-71
2022/01/02 01:55:35;;;;;;;4.00;2.00;;;8.50;99.90;8.40;100976.00;;;;5033724;27;87768;-71
2022/01/02 01:58:03;;;;;;;2.70;2.10;;;8.50;99.90;8.30;100964.00;;;;5035001;27;102967;-72
2022/01/02 02:00:32;;;;;;;3.67;2.20;;;8.40;99.90;8.30;100965.00;;;;5037894;27;105074;-71
2022/01/02 02:02:58;;;;;;;4.80;2.13;;;8.40;99.90;8.30;100962.00;;;;5038078;27;87997;-72
2022/01/02 02:05:24;;;;;;;2.53;1.87;;;8.40;99.90;8.20;100967.00;;;;5028869;27;108182;-71
2022/01/02 02:07:50;;;;;;;4.57;2.30;;;8.40;99.90;8.20;100963.00;;;;5029997;27;88303;-71
2022/01/02 02:10:27;;;;;;;4.80;1.73;;;8.30;99.90;8.20;100966.00;;;;5037126;27;118568;-71
2022/01/02 02:12:57;;;;;;;4.63;2.20;;;8.30;99.90;8.20;100964.00;;;;5038453;27;87883;-71
2022/01/02 02:15:23;;;;;;;1.93;1.70;;;8.30;99.90;8.10;100951.00;;;;5034134;27;87883;-71
2022/01/02 02:17:51;;;;;;;2.80;1.80;;;8.30;99.90;8.20;100951.00;;;;5033678;27;89069;-71
2022/01/02 02:20:29;;;;;;;5.50;2.37;;;8.20;99.90;8.10;100930.00;;;;5038410;27;89536;-69
2022/01/02 02:22:57;;;;;;;2.03;1.83;;;8.20;99.90;8.20;100932.00;;;;5037811;27;87687;-71
2022/01/02 02:25:31;;;;;;;2.40;2.20;;;8.30;99.90;8.20;100918.00;;;;5033887;27;87900;-69
2022/01/02 02:28:08;;;;;;;2.10;2.00;;;8.30;99.90;8.20;100901.00;;;;5034714;27;93960;-68
2022/01/02 02:30:36;;;;;;;4.90;2.63;;;8.30;99.90;8.20;100892.00;;;;5019057;27;88074;-69
2022/01/02 02:33:05;;;;;;;5.63;2.43;;;8.30;99.90;8.20;100883.00;;;;5037962;27;87850;-69
2022/01/02 02:35:33;;;;;;;8.07;2.47;;;8.30;99.90;8.20;100878.00;;;;5028271;27;86969;-70
2022/01/02 02:38:00;;;;;;;3.17;2.07;;;8.30;99.90;8.20;100864.00;;;;5015626;27;88532;-69
2022/01/02 02:40:29;;;;;;;3.47;2.47;;;8.30;99.90;8.20;100873.00;;;;5036292;27;88450;-70
2022/01/02 02:43:01;;;;;;;3.93;2.63;;;8.30;99.90;8.10;100880.00;;;;5037438;27;88670;-68
2022/01/02 02:51:29;;;;;;;2.80;2.23;;;8.20;99.90;8.10;100869.00;;;;5036970;27;87860;-68
2022/01/02 02:53:55;;;;;;;4.30;2.67;;;8.20;99.90;8.10;100844.00;;;;5037518;27;87660;-68
2022/01/02 02:56:40;;;;;;;4.20;2.47;;;8.20;99.90;8.10;100843.00;;;;5020078;27;109936;-69
2022/01/02 02:59:07;;;;;;;3.50;2.80;;;8.20;99.90;8.10;100843.00;;;;5021705;27;88277;-70
2022/01/02 03:01:32;;;;;;;4.57;2.97;;;8.20;99.90;8.10;100838.00;;;;5037400;27;88117;-69
2022/01/02 03:03:58;;;;;;;4.17;2.60;;;8.20;99.90;8.00;100859.00;;;;5036001;27;105646;-68
2022/01/02 03:06:24;;;;;;;4.57;3.37;;;8.10;99.90;8.00;100892.00;;;;5019779;27;109341;-71
2022/01/02 03:08:50;;;;;;;9.63;3.17;;;8.10;99.90;8.00;100896.00;;;;5036209;27;105435;-70
2022/01/02 03:11:20;;;;;;;7.00;2.63;;;8.10;99.90;7.90;100895.00;;;;5037400;27;89974;-69
2022/01/02 03:13:51;;;;;;;5.13;3.07;;;8.10;99.90;7.90;100871.00;;;;5036649;27;87677;-71
2022/01/02 03:16:18;;;;;;;7.63;4.40;;;8.00;99.90;7.90;100848.00;;;;5010030;27;87868;-69
2022/01/02 03:18:44;;;;;;;6.10;3.63;;;8.00;99.90;7.80;100836.00;;;;5035723;27;119542;-69
2022/01/02 03:21:11;;;;;;;5.67;2.70;;;8.00;99.90;7.80;100843.00;;;;5037260;27;88662;-68
2022/01/02 03:23:37;;;;;;;11.23;3.57;;;7.90;99.90;7.80;100846.00;;;;5036706;27;87680;-68
2022/01/02 03:26:04;;;;;;;6.23;3.00;;;7.90;99.90;7.80;100826.00;;;;5028928;27;86792;-69
2022/01/02 03:28:30;;;;;;;2.63;2.00;;;7.90;99.90;7.70;100819.00;;;;5036127;27;89090;-71
2022/01/02 03:30:56;;;;;;;3.23;2.57;;;7.90;99.90;7.70;100813.00;;;;5017037;27;115920;-68
2022/01/02 03:33:22;;;;;;;5.27;2.60;;;7.80;99.90;7.70;100804.00;;;;5035425;27;112155;-67
2022/01/02 03:35:47;;;;;;;4.77;3.23;;;7.80;99.90;7.70;100789.00;;;;5007706;27;87711;-68
2022/01/02 03:38:13;;;;;;;3.20;2.60;;;7.80;99.90;7.60;100771.00;;;;5034606;27;92139;-69
2022/01/02 03:40:39;;;;;;;5.13;3.20;;;7.80;99.90;7.60;100790.00;;;;5034986;27;116484;-70
2022/01/02 03:43:05;;;;;;;3.57;2.23;;;7.70;99.90;7.60;100785.00;;;;5036418;27;92716;-69
2022/01/02 03:45:31;;;;;;;3.67;2.80;;;7.70;99.90;7.60;100793.00;;;;5009233;27;88102;-69
2022/01/02 03:47:57;;;;;;;5.33;2.30;;;7.70;99.90;7.50;100782.00;;;;5010517;27;118015;-69
2022/01/02 03:50:23;;;;;;;2.83;2.53;;;7.70;99.90;7.50;100778.00;;;;5036481;27;88124;-67
2022/01/02 03:52:49;;;;;;;3.13;2.27;;;7.60;99.90;7.50;100776.00;;;;5036674;27;87789;-68
2022/01/02 03:55:15;;;;;;;3.57;2.23;;;7.60;99.90;7.50;100778.00;;;;5034208;27;87599;-69
2022/01/02 03:57:41;;;;;;;4.57;2.20;;;7.60;99.90;7.40;100780.00;;;;5030173;27;88607;-69
2022/01/02 04:00:13;;;;;;;3.67;2.73;;;7.60;99.90;7.40;100785.00;;;;5016703;27;112518;-68
2022/01/02 04:02:40;;;;;;;4.50;2.57;;;7.60;99.90;7.40;100795.00;;;;5036511;27;89774;-68
2022/01/02 04:05:08;;;;;;;3.30;2.23;;;7.50;99.90;7.40;100770.00;;;;5016074;27;87880;-69
2022/01/02 04:07:34;;;;;;;4.53;2.53;;;7.50;99.90;7.40;100758.00;;;;5029075;27;105083;-69
2022/01/02 04:10:04;;;;;;;3.67;2.03;;;7.50;99.90;7.40;100757.00;;;;5035468;27;98368;-69
2022/01/02 04:12:30;;;;;;;5.87;2.83;;;7.50;99.90;7.40;100752.00;;;;5036405;27;87622;-69
2022/01/02 04:14:55;;;;;;;3.40;2.43;;;7.50;99.90;7.50;100741.00;;;;5035840;27;88467;-69
2022/01/02 04:17:23;;;;;;;2.93;2.10;;;7.60;99.90;7.50;100732.00;;;;5018405;27;117616;-69
2022/01/02 04:19:50;;;;;;;2.40;2.20;;;7.60;99.90;7.60;100738.00;;;;5035731;27;87650;-69
2022/01/02 04:22:16;;;;;;;4.63;2.53;;;7.60;99.90;7.60;100754.00;;;;5016788;27;88667;-71
2022/01/02 04:24:42;;;;;;;4.37;2.63;;;7.70;99.90;7.60;100744.00;;;;5036054;27;87732;-70
2022/01/02 04:27:08;;;;;;;2.20;1.90;;;7.70;99.90;7.70;100751.00;;;;5017381;27;118618;-70
2022/01/02 04:29:34;;;;;;;3.57;2.70;;;7.70;99.90;7.70;100734.00;;;;5017163;27;87846;-71
2022/01/02 04:32:00;;;;;;;2.63;2.43;;;7.80;99.90;7.80;100737.00;;;;5036383;27;88035;-70
2022/01/02 04:34:25;;;;;;;3.47;2.67;;;7.90;99.90;7.90;100751.00;;;;5035187;27;93072;-70
2022/01/02 04:36:51;;;;;;;4.90;2.23;;;7.90;99.90;7.90;100726.00;;;;5017533;27;118226;-70
2022/01/02 04:39:17;;;;;;;2.57;1.97;;;8.00;99.90;7.90;100724.00;;;;5034997;27;117500;-70
2022/01/02 04:41:43;;;;;;;3.03;2.00;;;8.00;99.90;8.00;100725.00;;;;5036469;27;87901;-70
2022/01/02 04:44:09;;;;;;;5.80;2.23;;;8.10;99.90;8.00;100711.00;;;;5035315;27;109347;-70
2022/01/02 04:46:35;;;;;;;4.60;2.40;;;8.10;99.90;8.00;100712.00;;;;5027142;27;89258;-69
2022/01/02 04:49:00;;;;;;;3.43;1.93;;;8.10;99.90;8.00;100712.00;;;;5035249;27;102225;-69
2022/01/02 04:51:26;;;;;;;4.53;2.50;;;8.20;99.90;8.10;100708.00;;;;5017046;27;88080;-68
2022/01/02 04:53:52;;;;;;;2.57;1.63;;;8.20;99.90;8.10;100708.00;;;;5034968;27;106472;-71
2022/01/02 04:56:18;;;;;;;5.53;2.77;;;8.20;99.90;8.10;100704.00;;;;5027246;27;88510;-70
2022/01/02 04:58:44;;;;;;;3.47;2.17;;;8.20;99.90;8.20;100709.00;;;;5035187;27;102048;-69
2022/01/02 05:01:14;;;;;;;6.23;2.90;;;8.30;99.90;8.20;100701.00;;;;5035055;27;110668;-70
2022/01/02 05:03:40;;;;;;;4.50;2.13;;;8.30;99.90;8.20;100706.00;;;;5021115;27;87156;-70
2022/01/02 05:06:08;;;;;;;3.03;2.30;;;8.30;99.90;8.20;100697.00;;;;5039402;27;105977;-69
2022/01/02 05:08:34;;;;;;;2.33;1.53;;;8.30;99.90;8.30;100690.00;;;;5038031;27;98063;-71
2022/01/02 05:11:00;;;;;;;4.97;1.87;;;8.30;99.90;8.30;100695.00;;;;5039340;27;88717;-68
2022/01/02 05:13:26;;;;;;;2.60;2.03;;;8.40;99.90;8.30;100685.00;;;;5021546;27;87774;-68
2022/01/02 05:15:52;;;;;;;2.60;2.03;;;8.40;99.90;8.30;100688.00;;;;5041954;27;118043;-69
2022/01/02 05:18:18;;;;;;;5.23;1.83;;;8.40;99.90;8.40;100672.00;;;;5038810;27;87848;-70
2022/01/02 05:20:44;;;;;;;3.70;1.63;;;8.50;99.90;8.40;100668.00;;;;5038787;27;108371;-70
2022/01/02 05:23:10;;;;;;;4.43;2.00;;;8.50;99.90;8.40;100673.00;;;;5030361;27;87779;-69
2022/01/02 05:25:35;;;;;;;5.73;2.50;;;8.50;99.90;8.40;100664.00;;;;5038408;27;87709;-71
2022/01/02 05:28:01;;;;;;;2.13;1.70;;;8.50;99.90;8.50;100646.00;;;;5038502;27;119167;-70
2022/01/02 05:30:27;;;;;;;4.63;1.93;;;8.50;99.90;8.50;100645.00;;;;5037974;27;109685;-69
2022/01/02 05:32:52;;;;;;;2.13;1.63;;;8.50;99.90;8.50;100639.00;;;;5030058;27;88361;-70
2022/01/02 05:35:18;;;;;;;2.20;1.50;;;8.50;99.90;8.50;100636.00;;;;5018791;27;118989;-71
2022/01/02 05:37:44;;;;;;;2.50;1.87;;;8.50;99.90;8.50;100633.00;;;;5036811;27;118123;-70
2022/01/02 05:40:09;;;;;;;1.73;1.40;;;8.60;99.90;8.50;100627.00;;;;5038158;27;109471;-70
2022/01/02 05:42:35;;;;;;;2.73;1.93;;;8.60;99.90;8.50;100628.00;;;;5019295;27;90354;-69
2022/01/02 05:45:01;;;;;;;2.40;1.27;;;8.60;99.90;8.50;100637.00;;;;5028789;27;117600;-69
2022/01/02 05:47:26;;;;;;;2.27;1.83;;;8.60;99.90;8.50;100624.00;;;;5006153;27;116801;-68
2022/01/02 05:49:52;;;;;;;2.73;1.73;;;8.60;99.90;8.50;100619.00;;;;5037904;27;111307;-68
2022/01/02 05:52:18;;;;;;;3.17;1.97;;;8.60;99.90;8.50;100639.00;;;;5031983;27;109386;-68
2022/01/02 05:54:43;;;;;;;4.47;1.97;;;8.60;99.90;8.60;100639.00;;;;5027310;27;117839;-69
2022/01/02 05:57:09;;;;;;;7.03;1.90;;;8.60;99.90;8.60;100628.00;;;;5037360;27;116290;-69
2022/01/02 05:59:36;;;;;;;4.50;1.67;;;8.70;99.90;8.60;100627.00;;;;5037152;27;110426;-69
2022/01/02 06:02:02;;;;;;;1.53;1.40;;;8.70;99.90;8.60;100639.00;;;;5036631;27;87597;-68
2022/01/02 06:04:28;;;;;;;2.80;1.63;;;8.70;99.90;8.60;100635.00;;;;5022553;27;95277;-71
2022/01/02 06:06:54;;;;;;;2.93;2.07;;;8.70;99.90;8.60;100633.00;;;;5038702;27;88177;-70
2022/01/02 06:09:20;;;;;;;3.10;1.73;;;8.70;99.90;8.60;100632.00;;;;5037643;27;87741;-69
2022/01/02 06:11:45;;;;;;;1.57;1.07;;;8.70;99.90;8.60;100612.00;;;;5038429;27;87941;-72
2022/01/02 06:14:11;;;;;;;2.87;1.70;;;8.70;99.90;8.60;100622.00;;;;5036164;27;117754;-70
2022/01/02 06:16:37;;;;;;;2.50;1.53;;;8.70;99.90;8.60;100629.00;;;;5038366;27;106631;-69
2022/01/02 06:19:02;;;;;;;4.13;1.47;;;8.70;99.90;8.60;100621.00;;;;5017919;27;87966;-69
2022/01/02 06:21:28;;;;;;;3.47;1.80;;;8.70;99.90;8.60;100619.00;;;;5018094;27;91715;-71
2022/01/02 06:23:54;;;;;;;2.13;1.37;;;8.70;99.90;8.60;100621.00;;;;5034580;27;118809;-71
2022/01/02 06:26:19;;;;;;;2.87;1.90;;;8.70;99.90;8.60;100611.00;;;;5037839;27;100081;-70
2022/01/02 06:28:45;;;;;;;3.13;1.70;;;8.70;99.90;8.60;100605.00;;;;5036808;27;109494;-69
2022/01/02 06:31:11;;;;;;;1.73;1.27;;;8.70;99.90;8.60;100615.00;;;;5037567;27;109304;-68
2022/01/02 06:33:37;;;;;;;2.40;1.50;;;8.70;99.90;8.60;100613.00;;;;5036775;27;88189;-70
2022/01/02 06:36:03;;;;;;;2.90;1.60;;;8.70;99.90;8.60;100612.00;;;;5038333;27;87744;-72
2022/01/02 06:38:29;;;;;;;1.30;1.20;;;9.60;99.90;8.60;100611.00;;;;5036202;27;110540;-69
2022/01/02 06:40:54;;;;;;;2.77;1.33;;;8.70;99.90;8.60;100609.00;;;;5037441;27;108788;-70
2022/01/02 06:43:20;;;;;;;2.63;1.27;;;8.70;99.90;8.60;100622.00;;;;5036239;27;117829;-72
2022/01/02 06:45:47;;;;;;;1.73;1.40;;;8.70;99.90;8.60;100610.00;;;;5038248;27;88838;-69
2022/01/02 06:48:13;;;;;;;3.80;2.10;;;8.70;99.90;8.50;100632.00;;;;5017408;27;110162;-69
2022/01/02 06:50:39;;;;;;;2.60;1.70;;;8.60;99.90;8.50;100607.00;;;;5037006;27;106858;-69
2022/01/02 06:53:05;;;;;;;1.90;1.43;;;8.60;99.90;8.50;100609.00;;;;5037225;27;88909;-68
2022/01/02 06:55:31;;;;;;;1.73;1.50;;;8.60;99.90;8.40;100608.00;;;;5018306;27;88033;-68
2022/01/02 06:57:57;;;;;;;1.27;1.13;;;8.50;99.90;8.40;100608.00;;;;5037245;27;87693;-68
2022/01/02 07:00:23;;;;;;;2.63;1.73;;;8.50;99.90;8.40;100602.00;;;;5036435;27;108817;-69
2022/01/02 07:02:48;;;;;;;2.67;1.53;;;8.50;99.90;8.30;100583.00;;;;5037462;27;88612;-69
2022/01/02 07:05:14;;;;;;;1.70;1.07;;;8.40;99.90;8.30;100591.00;;;;5036733;27;116830;-69
2022/01/02 07:07:43;;;;;;;2.90;1.60;;;8.40;99.90;8.30;100595.00;;;;5035781;27;110660;-69
2022/01/02 07:10:14;;;;;;;1.90;1.50;;;8.40;99.90;8.30;100597.00;;;;5037313;27;88013;-71
2022/01/02 07:12:40;;;;;;;7.60;2.20;;;8.40;99.90;8.30;100588.00;;;;5033438;27;90079;-71
2022/01/02 07:15:08;;;;;;;1.73;1.30;;;8.40;99.90;8.30;100588.00;;;;5032976;27;107786;-70
2022/01/02 07:17:34;;;;;;;2.17;1.43;;;8.40;99.90;8.30;100586.00;;;;5015034;27;88250;-70
2022/01/02 07:20:01;;;;;;;1.43;1.33;;;8.40;99.90;8.30;100596.00;;;;5033745;27;87544;-71
2022/01/02 07:22:26;;;;;;;1.53;1.30;;;8.40;99.90;8.30;100609.00;;;;5032944;27;105107;-70
2022/01/02 07:24:52;;;;;;;3.07;1.50;;;8.40;99.90;8.20;100630.00;;;;5013019;27;117630;-71
2022/01/02 07:27:19;;;;;;;2.17;1.80;;;8.40;99.90;8.20;100625.00;;;;5032314;27;110456;-69
2022/01/02 07:29:46;;;;;;;1.83;1.50;;;8.30;99.90;8.20;100622.00;;;;5035059;27;87059;-69
2022/01/02 07:32:12;;;;;;;2.00;1.53;;;8.30;99.90;8.20;100616.00;;;;5033586;27;89552;-69
2022/01/02 07:34:38;;;;;;;1.30;1.20;;;8.30;99.90;8.30;100603.00;;;;5031736;27;105692;-69
2022/01/02 07:37:03;;;;;;;1.83;1.50;;;8.30;99.90;8.30;100609.00;;;;5031840;27;109491;-69
2022/01/02 07:39:29;;;;;;;2.80;1.97;;;8.40;99.90;8.30;100616.00;;;;5032977;27;108297;-69
2022/01/02 07:41:55;;;;;;;3.33;1.93;;;8.40;99.90;8.20;100614.00;;;;5031682;27;118691;-70
2022/01/02 07:44:20;;;;;;;1.80;1.70;;;8.30;99.90;8.30;100625.00;;;;5025530;27;117439;-68
2022/01/02 07:46:46;;;;;;;2.17;1.57;;;8.40;99.90;8.30;100626.00;;;;5032556;27;110022;-68
2022/01/02 07:49:12;;;;;;;2.30;1.70;;;8.40;99.90;8.30;100625.00;;;;5013941;27;93839;-69
2022/01/02 07:51:37;;;;;;;2.77;1.80;;;8.40;99.90;8.30;100618.00;;;;5028823;27;117913;-68
2022/01/02 07:54:03;;;;;;;4.23;2.53;;;8.40;99.90;8.30;100611.00;;;;5032233;27;117278;-69
2022/01/02 07:56:29;;;;;;;3.70;2.37;;;8.30;99.90;8.30;100604.00;;;;5032482;27;110781;-68
2022/01/02 07:58:57;;;;;;;3.20;2.30;;;8.30;99.90;8.30;100593.00;;;;5032210;27;87660;-70
2022/01/02 08:01:23;;;;;;;2.73;1.67;;;8.40;99.90;8.30;100593.00;;;;5033057;27;88921;-68
2022/01/02 08:03:49;;;;;;;3.13;1.77;;;8.40;99.90;8.40;100599.00;;;;5032824;27;89973;-68
2022/01/02 08:06:15;;;;;;;1.40;1.30;;;8.50;99.90;8.40;100605.00;;;;5033455;27;87571;-69
2022/01/02 08:08:41;;;;;;;4.17;1.87;;;8.50;99.90;8.50;100601.00;;;;5012963;27;90205;-70
2022/01/02 08:11:06;;;;;;;4.13;2.07;;;8.50;99.90;8.60;100604.00;;;;5032359;27;117893;-69
2022/01/02 08:13:32;;;;;;;2.27;1.93;;;8.60;99.90;8.70;100597.00;;;;5031241;27;116936;-70
2022/01/02 08:15:58;;;;;;;4.60;2.10;;;8.80;99.90;8.80;100594.00;;;;5032965;27;92713;-70
2022/01/02 08:18:23;;;;;;;5.50;1.60;;;8.80;99.90;8.80;100586.00;;;;4993497;27;92577;-69
2022/01/02 08:20:50;;;;;;;4.87;2.23;;;8.80;99.90;8.90;100582.00;;;;5030971;27;117950;-70
2022/01/02 08:23:16;;;;;;;1.90;1.53;;;8.90;99.90;8.90;100580.00;;;;5028154;27;88451;-70
2022/01/02 08:25:42;;;;;;;5.03;1.77;;;9.50;99.90;9.00;100568.00;;;;5032706;27;89129;-69
2022/01/02 08:28:07;;;;;;;5.53;1.30;;;9.00;99.90;9.00;100573.00;;;;5032677;27;87910;-69
2022/01/02 08:30:34;;;;;;;2.03;1.37;;;9.10;99.90;9.10;100572.00;;;;5032788;27;88136;-68
2022/01/02 08:32:59;;;;;;;4.07;2.03;;;9.10;99.90;9.10;100572.00;;;;5025706;27;87936;-68
2022/01/02 08:35:25;;;;;;;2.07;1.47;;;9.20;99.90;9.20;100565.00;;;;5031610;27;106701;-69
2022/01/02 08:37:51;;;;;;;1.50;1.40;;;9.20;99.90;9.20;100566.00;;;;5032544;27;87943;-69
2022/01/02 08:40:17;;;;;;;2.10;1.57;;;9.30;99.90;9.30;100572.00;;;;5032621;27;90177;-69
2022/01/02 08:42:43;;;;;;;1.93;1.63;;;9.30;99.90;9.30;100565.00;;;;5031747;27;118076;-69
2022/01/02 08:45:08;;;;;;;2.20;1.57;;;9.40;99.90;9.40;100564.00;;;;5033017;27;87858;-69
2022/01/02 08:47:35;;;;;;;4.13;1.40;;;9.40;99.90;9.40;100574.00;;;;5024321;27;97474;-69
2022/01/02 08:50:01;;;;;;;3.63;2.00;;;9.50;99.90;9.50;100597.00;;;;5031771;27;102656;-69
2022/01/02 08:52:27;;;;;;;2.03;1.53;;;9.60;99.90;9.60;100581.00;;;;5032466;27;88949;-69
2022/01/02 08:54:52;;;;;;;2.07;1.70;;;9.60;99.90;9.70;100586.00;;;;5032560;27;109284;-68
2022/01/02 08:57:18;;;;;;;3.80;1.57;;;9.70;99.90;9.80;100595.00;;;;5032059;27;87836;-68
2022/01/02 08:59:45;;;;;;;2.77;1.47;;;9.80;99.90;9.80;100603.00;;;;5032543;27;108782;-68
2022/01/02 09:02:10;;;;;;;3.43;1.80;;;9.90;99.90;9.90;100606.00;;;;5031400;27;117285;-68
2022/01/02 09:04:36;;;;;;;5.77;1.93;;;9.90;99.90;10.00;100609.00;;;;5031649;27;110562;-68
2022/01/02 09:07:02;;;;;;;2.93;2.13;;;9.90;99.90;10.10;100609.00;;;;5032564;27;87050;-69
2022/01/02 09:09:28;;;;;;;2.60;1.97;;;10.00;99.90;10.10;100601.00;;;;5031792;27;97241;-70
2022/01/02 09:11:54;;;;;;;3.83;2.20;;;10.20;99.90;10.20;100600.00;;;;5032011;27;104548;-69
2022/01/02 09:14:20;;;;;;;2.83;1.80;;;10.20;99.90;10.30;100607.00;;;;5030323;27;110502;-69
2022/01/02 09:16:46;;;;;;;3.83;1.73;;;10.30;99.90;10.40;100611.00;;;;5031437;27;108806;-69
2022/01/02 09:19:13;;;;;;;2.13;1.67;;;10.40;99.90;10.40;100603.00;;;;5031770;27;88985;-69
2022/01/02 09:21:39;;;;;;;1.27;1.17;;;10.40;99.90;10.50;100598.00;;;;5013189;27;95957;-69
2022/01/02 09:24:06;;;;;;;2.97;1.43;;;10.50;99.90;10.60;100598.00;;;;5031461;27;93492;-71
2022/01/02 09:26:32;;;;;;;1.20;1.03;;;10.60;99.90;10.70;100601.00;;;;5028578;27;87681;-70
2022/01/02 09:28:57;;;;;;;2.73;1.43;;;10.60;99.90;10.70;100588.00;;;;5032132;27;88650;-69
2022/01/02 09:31:24;;;;;;;1.33;1.23;;;10.70;99.90;10.80;100576.00;;;;5032108;27;116615;-70
2022/01/02 09:33:49;;;;;;;3.10;1.50;;;10.80;99.90;10.90;100573.00;;;;5031628;27;87962;-69
2022/01/02 09:36:16;;;;;;;3.90;1.40;;;10.80;99.90;10.90;100578.00;;;;5032536;27;93099;-70
2022/01/02 09:38:42;;;;;;;1.40;1.30;;;10.90;99.90;11.00;100571.00;;;;5030741;27;102639;-69
2022/01/02 09:41:08;;;;;;;1.13;0.90;;;11.30;99.90;11.00;100566.00;;;;5031843;27;98641;-69
2022/01/02 09:43:34;;;;;;;1.93;1.43;;;11.10;99.90;11.10;100555.00;;;;5032126;27;88209;-70
2022/01/02 09:46:02;;;;;;;1.90;1.03;;;11.10;99.90;11.20;100558.00;;;;5032795;27;87753;-69
2022/01/02 09:48:29;;;;;;;1.63;1.20;;;11.10;99.90;11.30;100563.00;;;;5013669;27;88511;-69
2022/01/02 09:50:56;;;;;;;1.37;1.23;;;11.20;99.90;11.40;100562.00;;;;5015105;27;87940;-71
2022/01/02 09:53:23;;;;;;;2.33;1.90;;;11.30;99.90;11.40;100565.00;;;;5030165;27;97120;-69
2022/01/02 09:55:49;;;;;;;3.23;2.07;;;11.40;99.90;11.50;100552.00;;;;5035370;27;87060;-69
2022/01/02 09:58:15;;;;;;;1.90;1.50;;;11.50;99.90;11.50;100546.00;;;;5027368;27;103513;-69
2022/01/02 10:00:45;;;;;;;2.03;1.43;;;11.50;99.90;11.60;100559.00;;;;5016564;27;87891;-68
2022/01/02 10:03:13;;;;;;;2.10;1.30;;;11.60;99.90;11.60;100547.00;;;;5034412;27;88895;-69
2022/01/02 10:05:59;;;;;;;3.00;1.50;;;11.60;99.90;11.70;100546.00;;;;5035343;27;87723;-70
2022/01/02 10:08:36;;;;;;;2.03;1.47;;;11.60;99.90;11.70;100540.00;;;;5014416;27;88421;-69
2022/01/02 10:11:25;;;;;;;1.97;1.40;;;11.70;99.90;11.70;100519.00;;;;5033756;27;88149;-70
2022/01/02 10:14:02;;;;;;;1.63;1.30;;;11.70;99.90;11.70;100521.00;;;;5033816;27;87771;-70
2022/01/02 10:16:42;;;;;;;1.93;1.17;;;11.70;99.90;11.70;100515.00;;;;5035510;27;87768;-72
2022/01/02 10:19:18;;;;;;;1.57;1.33;;;11.70;99.90;11.70;100515.00;;;;5034750;27;87680;-69
2022/01/02 10:22:01;;;;;;;1.33;1.23;;;11.70;99.90;11.70;100503.00;;;;5036110;27;87864;-69
2022/01/02 10:24:32;;;;;;;1.60;1.10;;;11.80;99.90;11.70;100514.00;;;;5034049;27;99020;-69
2022/01/02 10:27:17;;;;;;;1.23;1.13;;;11.70;99.90;11.80;100519.00;;;;5034531;27;87923;-69
2022/01/02 10:29:50;;;;;;;1.10;1.00;;;11.80;99.90;11.80;100493.00;;;;5034572;27;89360;-70
2022/01/02 10:32:33;;;;;;;1.73;1.23;;;11.80;99.90;11.90;100508.00;;;;5026834;27;88151;-69
2022/01/02 10:35:21;;;;;;;1.60;1.20;;;11.90;99.90;11.90;100496.00;;;;5033486;27;87889;-69
2022/01/02 10:37:54;;;;;;;1.43;1.00;;;11.90;99.90;11.90;100489.00;;;;5034264;27;87713;-69
2022/01/02 10:40:39;;;;;;;0.97;0.87;;;12.00;99.90;12.00;100491.00;;;;5033869;27;93660;-69
2022/01/02 10:43:39;;;;;;;1.27;1.17;;;12.00;99.90;12.10;100484.00;;;;5015392;27;87767;-69
2022/01/02 10:46:09;;;;;;;4.43;1.30;;;12.00;99.90;12.20;100481.00;;;;5015261;27;100153;-69
2022/01/02 10:48:42;;;;;;;2.73;1.43;;;12.20;99.90;12.30;100480.00;;;;5034066;27;87186;-69
2022/01/02 10:51:14;;;;;;;1.67;1.30;;;12.20;99.90;12.40;100475.00;;;;5033937;27;117594;-70
2022/01/02 10:53:57;;;;;;;1.47;1.30;;;12.30;99.90;12.50;100463.00;;;;5033723;27;87895;-71
2022/01/02 10:56:30;;;;;;;3.07;1.40;;;12.40;99.90;12.60;100464.00;;;;5034568;27;88838;-71
2022/01/02 10:58:58;;;;;;;1.70;1.10;;;12.50;99.90;12.60;100459.00;;;;5013355;27;87948;-71
2022/01/02 11:01:24;;;;;;;2.73;1.57;;;12.60;99.90;12.60;100451.00;;;;5032832;27;100644;-70
2022/01/02 11:03:52;;;;;;;2.60;1.10;;;12.60;99.90;12.50;100445.00;;;;5033761;27;97756;-69
2022/01/02 11:06:33;;;;;;;1.10;1.00;;;12.50;99.90;12.40;100431.00;;;;5035112;27;87735;-70